Time;durP1;ratioP1;P1;durP2;ratioP2;P2;SDS_P1;SDS_P2;PMS_P1;PMS_P2;Temp;Humidity;BMP_temperature;BMP_pressure;BME280_temperature;BME280_humidity;BME280_pressure;Samples;Min_cycle;Max_cycle;Signal;HPM_P1;HPM_P2
2022/04/01 00:02:13;;;;;;;4.55;1.10;;;;;;;;;;4967210;28;20054;-66
2022/04/01 00:04:39;;;;;;;2.63;1.13;;;;;;;;;;4967694;28;20054;-65
2022/04/01 00:07:06;;;;;;;3.50;1.20;;;;;;;;;;4968080;28;20038;-65
2022/04/01 00:09:32;;;;;;;4.90;0.73;;;;;;;;;;4968136;28;20054;-66
2022/04/01 00:11:58;;;;;;;2.03;0.90;;;;;;;;;;4950391;28;20061;-66
2022/04/01 00:14:24;;;;;;;3.70;1.10;;;;;;;;;;4968246;28;20043;-66
2022/04/01 00:16:51;;;;;;;2.97;1.00;;;;;;;;;;4968378;28;20125;-66
2022/04/01 00:19:20;;;;;;;4.35;1.10;;;;;;;;;;4967321;28;20074;-66
2022/04/01 00:21:46;;;;;;;3.78;1.00;;;;;;;;;;4968098;28;20106;-66
2022/04/01 00:24:12;;;;;;;3.33;1.10;;;;;;;;;;4967505;28;20050;-66
2022/04/01 00:26:38;;;;;;;2.40;1.27;;;;;;;;;;4968033;28;20046;-66
2022/04/01 00:29:14;;;;;;;3.92;1.33;;;;;;;;;;4967617;28;20061;-66
2022/04/01 00:31:43;;;;;;;2.08;0.82;;;;;;;;;;4967766;28;20051;-66
2022/04/01 00:34:16;;;;;;;5.25;1.20;;;;;;;;;;4949251;28;20520;-66
2022/04/01 00:36:44;;;;;;;3.95;1.08;;;;;;;;;;4967660;28;20042;-66
2022/04/01 00:39:10;;;;;;;2.65;1.10;;;;;;;;;;4967223;28;20117;-66
2022/04/01 00:41:36;;;;;;;3.70;1.05;;;;;;;;;;4966604;28;20461;-66
2022/04/01 00:44:14;;;;;;;4.07;1.52;;;;;;;;;;4967204;28;20469;-66
2022/04/01 00:46:40;;;;;;;3.30;0.80;;;;;;;;;;4967518;28;20050;-66
2022/04/01 00:49:07;;;;;;;3.92;1.02;;;;;;;;;;4966441;28;20151;-66
2022/04/01 00:51:33;;;;;;;4.57;1.30;;;;;;;;;;4967164;28;20047;-66
2022/04/01 00:53:59;;;;;;;2.72;0.90;;;;;;;;;;4966285;28;20078;-66
2022/04/01 00:56:29;;;;;;;3.20;1.10;;;;;;;;;;4967364;28;20074;-66
2022/04/01 00:58:55;;;;;;;3.00;0.90;;;;;;;;;;4967058;28;20085;-66
2022/04/01 01:01:21;;;;;;;3.22;1.17;;;;;;;;;;4967662;28;20125;-66
2022/04/01 01:03:47;;;;;;;1.92;0.70;;;;;;;;;;4966725;28;20038;-66
2022/04/01 01:06:14;;;;;;;1.77;0.77;;;;;;;;;;4949503;28;20062;-66
2022/04/01 01:08:40;;;;;;;2.65;1.00;;;;;;;;;;4967214;28;20042;-66
2022/04/01 01:11:07;;;;;;;2.97;0.95;;;;;;;;;;4966814;28;20050;-66
2022/04/01 01:13:33;;;;;;;2.85;1.00;;;;;;;;;;4967054;28;20556;-66
2022/04/01 01:15:59;;;;;;;3.58;1.10;;;;;;;;;;4966802;28;20084;-66
2022/04/01 01:18:26;;;;;;;2.13;0.90;;;;;;;;;;4965814;28;20047;-66
2022/04/01 01:20:52;;;;;;;4.20;1.20;;;;;;;;;;4966444;28;20105;-67
2022/04/01 01:23:18;;;;;;;2.72;0.80;;;;;;;;;;4967952;28;20050;-65
2022/04/01 01:25:46;;;;;;;1.63;0.65;;;;;;;;;;4967178;28;20121;-66
2022/04/01 01:28:12;;;;;;;2.13;0.80;;;;;;;;;;4966715;28;20674;-65
2022/04/01 01:30:39;;;;;;;1.50;0.75;;;;;;;;;;4967015;28;20050;-65
2022/04/01 01:33:05;;;;;;;1.98;0.85;;;;;;;;;;4965775;28;20122;-65
2022/04/01 01:35:32;;;;;;;3.25;1.00;;;;;;;;;;4967114;28;20042;-65
2022/04/01 01:37:58;;;;;;;3.92;1.10;;;;;;;;;;4966735;28;20065;-65
2022/04/01 01:40:24;;;;;;;3.20;0.85;;;;;;;;;;4966898;28;20107;-65
2022/04/01 01:42:51;;;;;;;1.75;0.82;;;;;;;;;;4967209;28;20054;-65
2022/04/01 01:45:17;;;;;;;3.08;1.00;;;;;;;;;;4966777;28;20046;-65
2022/04/01 01:47:43;;;;;;;4.15;1.20;;;;;;;;;;4965630;28;20050;-65
2022/04/01 01:55:39;;;;;;;3.08;1.00;;;;;;;;;;4989753;28;20042;-65
2022/04/01 01:58:06;;;;;;;3.95;0.90;;;;;;;;;;4989752;28;20101;-65
2022/04/01 02:00:32;;;;;;;3.10;1.60;;;;;;;;;;4989889;28;20046;-65
2022/04/01 02:02:58;;;;;;;2.85;1.13;;;;;;;;;;4989077;28;20039;-65
2022/04/01 02:05:24;;;;;;;2.88;1.20;;;;;;;;;;4990210;28;20054;-64
2022/04/01 02:07:52;;;;;;;3.08;1.13;;;;;;;;;;4989908;28;20050;-65
2022/04/01 02:10:19;;;;;;;3.85;1.10;;;;;;;;;;4990364;28;20137;-65
2022/04/01 02:12:45;;;;;;;2.15;0.93;;;;;;;;;;4989640;28;20484;-65
2022/04/01 02:15:11;;;;;;;5.60;1.10;;;;;;;;;;4989759;28;20054;-65
2022/04/01 02:17:39;;;;;;;4.47;1.02;;;;;;;;;;4989074;28;20057;-65
2022/04/01 02:20:09;;;;;;;2.95;1.08;;;;;;;;;;4989482;28;20053;-65
2022/04/01 02:22:37;;;;;;;2.50;1.17;;;;;;;;;;4972149;28;20090;-65
2022/04/01 02:25:04;;;;;;;4.78;1.52;;;;;;;;;;4971775;28;20046;-65
2022/04/01 02:27:31;;;;;;;5.57;1.30;;;;;;;;;;4989858;28;20054;-65
2022/04/01 02:29:58;;;;;;;4.18;1.23;;;;;;;;;;4989354;28;20386;-65
2022/04/01 02:32:25;;;;;;;5.10;1.20;;;;;;;;;;4988615;28;20070;-65
2022/04/01 02:34:51;;;;;;;2.55;1.23;;;;;;;;;;4989259;28;20053;-66
2022/04/01 02:37:20;;;;;;;2.92;1.23;;;;;;;;;;4989819;28;20488;-65
2022/04/01 02:39:47;;;;;;;11.25;1.23;;;;;;;;;;4989287;28;20053;-64
2022/04/01 02:42:13;;;;;;;4.22;1.00;;;;;;;;;;4989018;28;20046;-65
2022/04/01 02:44:39;;;;;;;2.35;1.05;;;;;;;;;;4989364;28;20042;-65
2022/04/01 02:47:08;;;;;;;2.38;0.85;;;;;;;;;;4970280;28;20054;-65
2022/04/01 02:49:34;;;;;;;3.55;1.10;;;;;;;;;;4989142;28;20057;-65
2022/04/01 02:52:00;;;;;;;2.88;1.20;;;;;;;;;;4988776;28;20057;-65
2022/04/01 02:54:26;;;;;;;4.55;1.20;;;;;;;;;;4988272;28;20408;-65
2022/04/01 02:56:53;;;;;;;3.67;1.00;;;;;;;;;;4988870;28;20082;-65
2022/04/01 02:59:19;;;;;;;3.92;1.30;;;;;;;;;;4989238;28;20488;-65
2022/04/01 03:01:45;;;;;;;2.50;1.30;;;;;;;;;;4987948;28;20066;-64
2022/04/01 03:04:12;;;;;;;3.97;1.35;;;;;;;;;;4988074;28;20133;-65
2022/04/01 03:06:38;;;;;;;2.20;1.00;;;;;;;;;;4988824;28;20481;-65
2022/04/01 03:09:05;;;;;;;2.17;0.85;;;;;;;;;;4988653;28;20046;-65
2022/04/01 03:11:31;;;;;;;4.47;1.23;;;;;;;;;;4988651;28;20089;-65
2022/04/01 03:13:58;;;;;;;2.47;0.82;;;;;;;;;;4988371;28;20038;-65
2022/04/01 03:16:24;;;;;;;2.50;0.82;;;;;;;;;;4988782;28;20133;-66
2022/04/01 03:18:51;;;;;;;3.35;0.65;;;;;;;;;;4971529;28;20052;-65
2022/04/01 03:21:17;;;;;;;2.03;0.90;;;;;;;;;;4988767;28;20061;-65
2022/04/01 03:23:43;;;;;;;4.40;0.80;;;;;;;;;;4988693;28;20503;-65
2022/04/01 03:26:10;;;;;;;5.68;0.95;;;;;;;;;;4988292;28;20053;-65
2022/04/01 03:28:36;;;;;;;2.47;0.60;;;;;;;;;;4970848;28;20060;-65
2022/04/01 03:31:03;;;;;;;3.55;1.05;;;;;;;;;;4988000;28;20381;-65
2022/04/01 03:33:31;;;;;;;2.30;0.80;;;;;;;;;;4987717;28;20053;-65
2022/04/01 03:35:57;;;;;;;3.08;1.00;;;;;;;;;;4987919;28;20081;-65
2022/04/01 03:38:23;;;;;;;3.15;1.00;;;;;;;;;;4988436;28;20536;-66
2022/04/01 03:40:51;;;;;;;2.72;0.70;;;;;;;;;;4988217;28;20566;-65
2022/04/01 03:43:20;;;;;;;3.20;1.10;;;;;;;;;;4970957;28;20047;-65
2022/04/01 03:45:46;;;;;;;;;;;;;;;;;;4988548;28;20054;-65
2022/04/01 03:48:17;;;;;;;2.97;0.82;;;;;;;;;;4986915;28;20324;-65
2022/04/01 03:50:49;;;;;;;2.85;0.82;;;;;;;;;;4987895;28;20704;-65
2022/04/01 03:53:16;;;;;;;2.08;0.60;;;;;;;;;;4979014;28;20067;-65
2022/04/01 03:55:45;;;;;;;4.18;0.82;;;;;;;;;;4968358;28;20524;-65
2022/04/01 03:58:13;;;;;;;3.15;0.80;;;;;;;;;;4968637;28;20039;-65
2022/04/01 04:00:41;;;;;;;5.15;0.90;;;;;;;;;;4968540;28;20077;-64
2022/04/01 04:03:09;;;;;;;1.92;0.80;;;;;;;;;;4967223;28;20047;-65
2022/04/01 04:05:36;;;;;;;3.05;0.90;;;;;;;;;;4967948;28;20106;-65
2022/04/01 04:08:03;;;;;;;1.13;0.60;;;;;;;;;;4950700;28;20203;-65
2022/04/01 04:10:30;;;;;;;3.10;0.80;;;;;;;;;;4968126;28;20035;-65
2022/04/01 04:12:57;;;;;;;2.78;0.90;;;;;;;;;;4967946;28;20049;-66
2022/04/01 04:15:26;;;;;;;1.40;0.60;;;;;;;;;;4967117;28;20416;-66
2022/04/01 04:17:54;;;;;;;1.63;0.70;;;;;;;;;;4966700;28;20579;-65
2022/04/01 04:20:26;;;;;;;2.83;0.90;;;;;;;;;;4968580;28;20493;-65
2022/04/01 04:23:00;;;;;;;4.28;0.68;;;;;;;;;;4967642;28;20090;-66
2022/04/01 04:25:30;;;;;;;3.83;0.88;;;;;;;;;;4968088;28;20090;-65
2022/04/01 04:27:57;;;;;;;6.32;1.02;;;;;;;;;;4966993;28;20110;-65
2022/04/01 04:30:29;;;;;;;2.38;0.70;;;;;;;;;;4968019;28;20393;-66
2022/04/01 04:32:56;;;;;;;1.90;0.80;;;;;;;;;;4967021;28;20038;-65
2022/04/01 04:35:23;;;;;;;4.00;2.15;;;;;;;;;;4968094;28;20043;-65
2022/04/01 04:37:50;;;;;;;3.75;0.80;;;;;;;;;;4968055;28;20051;-65
2022/04/01 04:40:17;;;;;;;8.43;0.70;;;;;;;;;;4966886;28;20046;-65
2022/04/01 04:42:45;;;;;;;2.80;1.08;;;;;;;;;;4950317;28;20078;-65
2022/04/01 04:45:13;;;;;;;5.57;1.27;;;;;;;;;;4967464;28;20481;-65
2022/04/01 04:47:41;;;;;;;2.78;0.95;;;;;;;;;;4966794;28;20493;-65
2022/04/01 04:50:07;;;;;;;;;;;;;;;;;;4967905;28;20050;-65
2022/04/01 04:52:34;;;;;;;2.35;0.85;;;;;;;;;;4969241;28;19928;-65
2022/04/01 04:55:01;;;;;;;2.10;0.77;;;;;;;;;;4986448;28;20054;-65
2022/04/01 04:57:28;;;;;;;5.65;1.08;;;;;;;;;;4986882;28;20100;-65
2022/04/01 04:59:56;;;;;;;6.45;0.85;;;;;;;;;;4986792;28;20050;-66
2022/04/01 05:02:35;;;;;;;8.25;0.90;;;;;;;;;;4986032;28;20493;-65
2022/04/01 05:05:01;;;;;;;;;;;;;;;;;;4986562;28;20057;-65
2022/04/01 05:07:42;;;;;;;3.10;0.68;;;;;;;;;;4986791;28;20375;-64
2022/04/01 05:10:22;;;;;;;2.05;0.70;;;;;;;;;;4968427;28;20057;-66
2022/04/01 05:12:53;;;;;;;3.33;0.47;;;;;;;;;;4984533;28;20464;-65
2022/04/01 05:19:03;;;;;;;3.42;0.60;;;;;;;;;;4985261;28;20093;-66
2022/04/01 05:21:31;;;;;;;2.85;0.73;;;;;;;;;;4986167;28;20412;-66
2022/04/01 05:24:01;;;;;;;2.30;0.50;;;;;;;;;;4985820;28;20045;-66
2022/04/01 05:26:41;;;;;;;3.33;0.60;;;;;;;;;;4987247;28;20046;-67
2022/04/01 05:29:13;;;;;;;1.73;0.60;;;;;;;;;;4982383;28;20046;-66
2022/04/01 05:31:45;;;;;;;2.10;0.73;;;;;;;;;;4962046;28;20039;-66
2022/04/01 05:34:12;;;;;;;5.75;0.82;;;;;;;;;;4981290;28;20369;-66
2022/04/01 05:36:38;;;;;;;2.85;0.60;;;;;;;;;;4982288;28;20039;-67
2022/04/01 05:39:05;;;;;;;2.63;0.75;;;;;;;;;;4964937;28;20108;-66
2022/04/01 05:41:31;;;;;;;3.45;0.70;;;;;;;;;;4979578;28;20058;-67
2022/04/01 05:43:58;;;;;;;4.88;0.80;;;;;;;;;;4984972;28;20501;-67
2022/04/01 05:46:26;;;;;;;1.52;0.60;;;;;;;;;;4966733;28;20165;-67
2022/04/01 05:48:53;;;;;;;2.65;0.50;;;;;;;;;;4987041;28;20046;-68
2022/04/01 05:51:20;;;;;;;1.73;0.52;;;;;;;;;;4987289;28;20038;-67
2022/04/01 05:57:20;;;;;;;2.47;0.55;;;;;;;;;;4980495;28;20068;-65
2022/04/01 05:59:47;;;;;;;4.05;0.80;;;;;;;;;;4978588;28;20110;-65
2022/04/01 06:02:32;;;;;;;2.63;0.60;;;;;;;;;;4982889;28;20038;-66
2022/04/01 06:05:05;;;;;;;5.45;0.60;;;;;;;;;;4988242;28;20137;-66
2022/04/01 06:07:35;;;;;;;4.53;1.10;;;;;;;;;;4989457;28;20044;-65
2022/04/01 06:10:09;;;;;;;3.22;0.60;;;;;;;;;;4988741;28;20137;-64
2022/04/01 06:12:57;;;;;;;4.45;0.55;;;;;;;;;;4988067;28;20113;-65
2022/04/01 06:15:29;;;;;;;18.77;1.63;;;;;;;;;;4988844;28;20041;-65
2022/04/01 06:18:05;;;;;;;3.88;0.75;;;;;;;;;;4987858;28;20062;-65
2022/04/01 06:20:33;;;;;;;4.28;1.20;;;;;;;;;;4989168;28;20127;-65
2022/04/01 06:23:01;;;;;;;3.90;1.25;;;;;;;;;;4988696;28;20066;-65
2022/04/01 06:25:30;;;;;;;2.03;0.60;;;;;;;;;;4989335;28;20042;-65
2022/04/01 06:28:00;;;;;;;4.35;0.70;;;;;;;;;;4971191;28;20143;-65
2022/04/01 06:30:29;;;;;;;1.88;0.43;;;;;;;;;;4988996;28;20386;-65
2022/04/01 06:33:03;;;;;;;3.45;0.45;;;;;;;;;;4970398;28;20042;-65
2022/04/01 06:35:31;;;;;;;2.20;0.70;;;;;;;;;;4988806;28;20625;-64
2022/04/01 06:37:59;;;;;;;2.47;0.93;;;;;;;;;;4987710;28;20153;-65
2022/04/01 06:40:29;;;;;;;2.17;0.50;;;;;;;;;;4988998;28;20113;-65
2022/04/01 06:42:55;;;;;;;3.03;0.70;;;;;;;;;;4988594;28;20064;-65
2022/04/01 06:45:21;;;;;;;4.55;0.73;;;;;;;;;;4989322;28;20042;-64
2022/04/01 06:47:48;;;;;;;4.80;0.70;;;;;;;;;;4971062;28;20054;-65
2022/04/01 06:50:16;;;;;;;2.67;0.80;;;;;;;;;;4970748;28;20050;-65
2022/04/01 06:52:42;;;;;;;4.73;1.17;;;;;;;;;;4988694;28;20050;-65
2022/04/01 06:55:10;;;;;;;2.72;0.75;;;;;;;;;;4970599;28;20539;-65
2022/04/01 06:57:37;;;;;;;2.63;0.43;;;;;;;;;;4988477;28;20046;-65
2022/04/01 07:00:05;;;;;;;2.03;0.70;;;;;;;;;;4988048;28;20038;-65
2022/04/01 07:02:32;;;;;;;3.63;0.45;;;;;;;;;;4987764;28;20101;-65
2022/04/01 07:04:58;;;;;;;3.45;0.60;;;;;;;;;;4988455;28;20495;-65
2022/04/01 07:07:24;;;;;;;1.88;0.65;;;;;;;;;;4970792;28;20515;-65
2022/04/01 07:09:50;;;;;;;4.30;0.80;;;;;;;;;;4988735;28;20046;-65
2022/04/01 07:12:17;;;;;;;4.50;0.75;;;;;;;;;;4987926;28;20177;-65
2022/04/01 07:14:43;;;;;;;3.75;0.82;;;;;;;;;;4987889;28;20563;-66
2022/04/01 07:17:09;;;;;;;1.45;0.70;;;;;;;;;;4969753;28;20099;-66
2022/04/01 07:19:35;;;;;;;4.63;0.73;;;;;;;;;;4987986;28;20137;-66
2022/04/01 07:22:02;;;;;;;2.00;0.60;;;;;;;;;;4987952;28;20046;-65
2022/04/01 07:24:30;;;;;;;3.08;0.57;;;;;;;;;;4987783;28;20045;-66
2022/04/01 07:26:57;;;;;;;2.55;0.52;;;;;;;;;;4988062;28;20064;-67
2022/04/01 07:29:24;;;;;;;2.63;0.60;;;;;;;;;;4987631;28;20054;-66
2022/04/01 07:34:43;;;;;;;2.95;0.50;;;;;;;;;;4970261;28;20065;-66
2022/04/01 07:37:09;;;;;;;2.67;0.60;;;;;;;;;;4987459;28;20130;-66
2022/04/01 07:39:36;;;;;;;1.92;0.50;;;;;;;;;;4987443;28;20050;-66
2022/04/01 07:42:02;;;;;;;2.80;0.70;;;;;;;;;;4987572;28;20049;-65
2022/04/01 07:44:28;;;;;;;7.32;1.05;;;;;;;;;;4987714;28;20138;-65
2022/04/01 07:46:55;;;;;;;1.50;0.70;;;;;;;;;;4986826;28;20057;-66
2022/04/01 07:49:21;;;;;;;3.60;0.90;;;;;;;;;;4987823;28;20061;-66
2022/04/01 07:51:47;;;;;;;2.85;0.70;;;;;;;;;;4970185;28;20045;-65
2022/04/01 07:54:14;;;;;;;1.08;0.60;;;;;;;;;;4974241;28;20102;-66
2022/04/01 07:56:41;;;;;;;1.58;0.68;;;;;;;;;;4968160;28;20047;-66
2022/04/01 07:59:09;;;;;;;4.05;0.98;;;;;;;;;;4950054;28;20043;-66
2022/04/01 08:01:36;;;;;;;3.15;0.80;;;;;;;;;;4967238;28;20046;-66
2022/04/01 08:04:02;;;;;;;2.15;0.80;;;;;;;;;;4967462;28;20039;-67
2022/04/01 08:06:29;;;;;;;2.17;0.70;;;;;;;;;;4967896;28;20415;-66
2022/04/01 08:08:55;;;;;;;4.18;0.75;;;;;;;;;;4963396;28;20043;-66
2022/04/01 08:11:23;;;;;;;3.22;0.80;;;;;;;;;;4967848;28;20074;-66
2022/04/01 08:13:49;;;;;;;3.00;0.75;;;;;;;;;;4968134;28;20038;-65
2022/04/01 08:16:15;;;;;;;7.65;1.10;;;;;;;;;;4966580;28;20085;-65
2022/04/01 08:18:41;;;;;;;2.88;1.00;;;;;;;;;;4946130;28;20951;-66
2022/04/01 08:21:08;;;;;;;5.53;1.23;;;;;;;;;;4967276;28;20481;-65
2022/04/01 08:23:35;;;;;;;3.78;1.30;;;;;;;;;;4950298;28;20511;-65
2022/04/01 08:26:02;;;;;;;4.32;1.33;;;;;;;;;;4967667;28;20182;-66
2022/04/01 08:28:29;;;;;;;4.32;1.33;;;;;;;;;;4950021;28;20054;-67
2022/04/01 08:30:55;;;;;;;5.45;1.75;;;;;;;;;;4966201;28;20072;-67
2022/04/01 08:33:21;;;;;;;5.00;1.75;;;;;;;;;;4950143;28;20046;-67
2022/04/01 08:35:48;;;;;;;4.13;1.92;;;;;;;;;;4967683;28;20117;-68
2022/04/01 08:38:14;;;;;;;5.60;1.83;;;;;;;;;;4966804;28;20104;-68
2022/04/01 08:40:40;;;;;;;7.30;2.08;;;;;;;;;;4949843;28;20070;-68
2022/04/01 08:43:07;;;;;;;6.72;2.33;;;;;;;;;;4966826;28;20050;-68
2022/04/01 08:45:34;;;;;;;6.38;2.10;;;;;;;;;;4966191;28;20046;-67
2022/04/01 08:48:00;;;;;;;5.68;2.65;;;;;;;;;;4966757;28;20500;-68
2022/04/01 08:50:27;;;;;;;5.47;3.10;;;;;;;;;;4966777;28;20541;-67
2022/04/01 08:52:53;;;;;;;5.13;2.80;;;;;;;;;;4949175;28;20046;-67
2022/04/01 08:55:19;;;;;;;6.05;3.75;;;;;;;;;;4963318;28;20038;-67
2022/04/01 08:57:46;;;;;;;8.75;3.25;;;;;;;;;;4949402;28;20046;-67
2022/04/01 09:00:12;;;;;;;8.48;3.67;;;;;;;;;;4966330;28;20355;-67
2022/04/01 09:02:38;;;;;;;8.60;3.40;;;;;;;;;;4965699;28;20090;-67
2022/04/01 09:05:05;;;;;;;8.27;3.40;;;;;;;;;;4966491;28;20039;-67
2022/04/01 09:07:31;;;;;;;7.18;3.72;;;;;;;;;;4949278;28;20051;-67
2022/04/01 09:10:16;;;;;;;7.50;3.38;;;;;;;;;;4966717;28;20087;-67
2022/04/01 09:12:49;;;;;;;6.90;3.63;;;;;;;;;;4966688;28;20452;-67
2022/04/01 09:15:15;;;;;;;7.20;3.53;;;;;;;;;;4966490;28;20042;-67
2022/04/01 09:17:43;;;;;;;7.45;4.03;;;;;;;;;;4965417;28;20047;-67
2022/04/01 09:20:09;;;;;;;7.85;3.45;;;;;;;;;;4966665;28;20075;-67
2022/04/01 09:22:36;;;;;;;5.45;3.10;;;;;;;;;;4966824;28;20099;-67
2022/04/01 09:25:05;;;;;;;10.50;4.22;;;;;;;;;;4966488;28;20046;-67
2022/04/01 09:27:38;;;;;;;8.30;4.30;;;;;;;;;;4966493;28;20039;-67
2022/04/01 09:30:05;;;;;;;6.68;3.50;;;;;;;;;;4965920;28;20133;-67
2022/04/01 09:32:38;;;;;;;8.15;4.53;;;;;;;;;;4948169;28;20073;-67
2022/04/01 09:35:06;;;;;;;6.32;3.65;;;;;;;;;;4966288;28;20055;-66
2022/04/01 09:37:37;;;;;;;6.75;3.53;;;;;;;;;;4966308;28;20030;-67
2022/04/01 09:40:04;;;;;;;7.10;3.47;;;;;;;;;;4966551;28;20047;-67
2022/04/01 09:42:30;;;;;;;7.82;2.95;;;;;;;;;;4948788;28;20099;-67
2022/04/01 09:44:59;;;;;;;6.25;3.67;;;;;;;;;;4965959;28;20397;-67
2022/04/01 09:47:25;;;;;;;13.90;4.35;;;;;;;;;;4965747;28;20078;-67
2022/04/01 09:49:54;;;;;;;7.22;4.13;;;;;;;;;;4966591;28;20058;-67
2022/04/01 09:52:22;;;;;;;9.07;4.35;;;;;;;;;;4949212;28;20082;-67
2022/04/01 09:54:49;;;;;;;7.97;3.85;;;;;;;;;;4966076;28;20105;-67
2022/04/01 09:57:16;;;;;;;9.45;4.53;;;;;;;;;;4965760;28;20042;-67
2022/04/01 09:59:43;;;;;;;9.35;4.07;;;;;;;;;;4966317;28;20050;-67
2022/04/01 10:02:09;;;;;;;8.98;4.65;;;;;;;;;;4965373;28;20031;-67
2022/04/01 10:04:35;;;;;;;7.20;4.28;;;;;;;;;;4966230;28;20097;-67
2022/04/01 10:07:02;;;;;;;14.70;6.53;;;;;;;;;;4948732;28;20481;-67
2022/04/01 10:09:30;;;;;;;9.35;4.68;;;;;;;;;;4945096;28;20509;-67
2022/04/01 10:11:58;;;;;;;7.28;3.35;;;;;;;;;;4966133;28;20047;-67
2022/04/01 10:14:26;;;;;;;7.60;3.47;;;;;;;;;;4969538;28;20060;-67
2022/04/01 10:16:53;;;;;;;7.22;3.42;;;;;;;;;;4968644;28;20508;-67
2022/04/01 10:19:24;;;;;;;7.05;3.35;;;;;;;;;;4970051;28;20050;-67
2022/04/01 10:21:51;;;;;;;11.07;3.55;;;;;;;;;;4966316;28;20449;-67
2022/04/01 10:24:27;;;;;;;6.20;4.30;;;;;;;;;;4969872;28;20088;-67
2022/04/01 10:27:06;;;;;;;7.53;3.88;;;;;;;;;;4952125;28;20078;-67
2022/04/01 10:29:34;;;;;;;7.25;3.60;;;;;;;;;;4966008;28;20182;-67
2022/04/01 10:32:21;;;;;;;7.03;3.45;;;;;;;;;;4968313;28;20093;-67
2022/04/01 10:34:47;;;;;;;8.70;3.80;;;;;;;;;;4949233;28;21271;-67
2022/04/01 10:37:14;;;;;;;6.55;3.67;;;;;;;;;;4969130;28;20048;-67
2022/04/01 10:39:47;;;;;;;5.38;2.60;;;;;;;;;;4952012;28;20039;-67
2022/04/01 10:42:13;;;;;;;5.80;2.90;;;;;;;;;;4951368;28;20050;-67
2022/04/01 10:44:45;;;;;;;5.07;2.47;;;;;;;;;;4968463;28;20039;-67
2022/04/01 10:47:12;;;;;;;6.05;1.90;;;;;;;;;;4950344;28;20050;-67
2022/04/01 10:52:23;;;;;;;3.83;1.55;;;;;;;;;;4951517;28;20179;-68
2022/04/01 10:54:51;;;;;;;12.45;4.60;;;;;;;;;;4978975;28;20050;-68
2022/04/01 10:57:37;;;;;;;4.72;1.92;;;;;;;;;;4985786;28;20695;-68
2022/04/01 11:00:07;;;;;;;3.65;1.92;;;;;;;;;;4982554;28;20065;-67
2022/04/01 11:02:34;;;;;;;5.45;2.45;;;;;;;;;;4985072;28;20042;-67
2022/04/01 11:05:20;;;;;;;3.65;1.35;;;;;;;;;;4981514;28;20050;-67
2022/04/01 11:07:46;;;;;;;7.60;2.78;;;;;;;;;;4984059;28;20042;-67
2022/04/01 11:10:25;;;;;;;7.40;3.13;;;;;;;;;;4984853;28;20090;-68
2022/04/01 11:12:51;;;;;;;;;;;;;;;;;;4985693;28;20124;-68
2022/04/01 11:15:24;;;;;;;9.65;3.85;;;;;;;;;;4985158;28;19933;-68
2022/04/01 11:17:56;;;;;;;4.47;2.65;;;;;;;;;;4982105;28;20488;-68
2022/04/01 11:20:22;;;;;;;5.28;2.70;;;;;;;;;;4967598;28;20100;-68
2022/04/01 11:22:54;;;;;;;6.93;2.40;;;;;;;;;;4983526;28;20118;-68
2022/04/01 11:25:27;;;;;;;5.88;2.53;;;;;;;;;;4983677;28;20053;-68
2022/04/01 11:27:56;;;;;;;3.40;1.80;;;;;;;;;;4966988;28;20106;-68
2022/04/01 11:30:25;;;;;;;3.75;1.80;;;;;;;;;;4977442;28;20101;-68
2022/04/01 11:32:58;;;;;;;6.32;3.33;;;;;;;;;;4981873;28;20094;-68
2022/04/01 11:35:25;;;;;;;2.38;1.42;;;;;;;;;;4976503;28;20057;-68
2022/04/01 11:37:52;;;;;;;4.65;1.38;;;;;;;;;;4985221;28;20435;-68
2022/04/01 11:40:19;;;;;;;9.50;2.30;;;;;;;;;;4985128;28;20038;-68
2022/04/01 11:42:53;;;;;;;5.57;3.58;;;;;;;;;;4980375;28;20031;-68
2022/04/01 11:45:20;;;;;;;4.00;1.40;;;;;;;;;;4982185;28;20042;-67
2022/04/01 11:47:46;;;;;;;2.53;1.00;;;;;;;;;;4965327;28;20038;-68
2022/04/01 11:50:13;;;;;;;3.08;1.20;;;;;;;;;;4971654;28;20047;-68
2022/04/01 11:52:41;;;;;;;2.20;1.15;;;;;;;;;;4982837;28;20100;-68
2022/04/01 11:55:11;;;;;;;3.47;1.20;;;;;;;;;;4968407;28;20057;-67
2022/04/01 11:57:37;;;;;;;4.63;1.25;;;;;;;;;;4950777;28;20453;-67
2022/04/01 12:00:14;;;;;;;3.75;1.67;;;;;;;;;;4966643;28;20387;-67
2022/04/01 12:02:41;;;;;;;4.82;3.05;;;;;;;;;;4965126;28;20523;-67
2022/04/01 12:05:08;;;;;;;4.45;2.58;;;;;;;;;;4963851;28;20046;-67
2022/04/01 12:10:19;;;;;;;5.15;1.98;;;;;;;;;;4968173;28;20489;-67
2022/04/01 12:12:54;;;;;;;5.13;1.83;;;;;;;;;;4967398;28;20098;-67
2022/04/01 12:15:29;;;;;;;3.67;1.75;;;;;;;;;;4949712;28;20428;-67
2022/04/01 12:17:55;;;;;;;3.60;2.10;;;;;;;;;;4968556;28;20047;-67
2022/04/01 12:20:22;;;;;;;3.65;1.40;;;;;;;;;;4966954;28;20047;-67
2022/04/01 12:22:50;;;;;;;3.17;1.70;;;;;;;;;;4967717;28;20047;-67
2022/04/01 12:25:16;;;;;;;3.60;1.52;;;;;;;;;;4967065;28;20102;-66
2022/04/01 12:27:53;;;;;;;4.10;1.10;;;;;;;;;;4967630;28;20456;-70
2022/04/01 12:30:30;;;;;;;3.25;1.75;;;;;;;;;;4966825;28;20070;-73
2022/04/01 12:32:57;;;;;;;3.78;1.90;;;;;;;;;;4973867;28;20066;-69
2022/04/01 12:35:23;;;;;;;3.45;1.80;;;;;;;;;;4966047;28;20083;-69
2022/04/01 12:38:03;;;;;;;2.97;1.85;;;;;;;;;;4967124;28;20373;-68
2022/04/01 12:40:33;;;;;;;3.20;1.90;;;;;;;;;;4967113;28;20035;-68
2022/04/01 12:43:00;;;;;;;5.07;1.88;;;;;;;;;;4966532;28;20405;-68
2022/04/01 12:45:26;;;;;;;2.75;1.27;;;;;;;;;;4966349;28;20065;-68
2022/04/01 12:47:52;;;;;;;5.43;1.98;;;;;;;;;;4966840;28;20521;-69
2022/04/01 12:50:34;;;;;;;3.80;1.40;;;;;;;;;;4967415;28;20508;-68
2022/04/01 12:53:16;;;;;;;2.95;1.52;;;;;;;;;;4966510;28;20069;-68
2022/04/01 12:55:43;;;;;;;3.10;1.35;;;;;;;;;;4967471;28;20054;-68
2022/04/01 12:58:14;;;;;;;4.00;2.13;;;;;;;;;;4949401;28;20065;-69
2022/04/01 13:00:40;;;;;;;3.40;1.48;;;;;;;;;;4965788;28;20042;-69
2022/04/01 13:03:08;;;;;;;3.65;1.08;;;;;;;;;;4966460;28;20047;-69
2022/04/01 13:05:34;;;;;;;5.40;1.60;;;;;;;;;;4949318;28;20050;-69
2022/04/01 13:08:01;;;;;;;6.35;2.10;;;;;;;;;;4966415;28;20454;-69
2022/04/01 13:10:27;;;;;;;3.58;1.55;;;;;;;;;;4967021;28;21589;-69
2022/04/01 13:12:55;;;;;;;5.65;2.17;;;;;;;;;;4966262;28;20045;-69
2022/04/01 13:15:24;;;;;;;4.10;1.20;;;;;;;;;;4966291;28;20043;-68
2022/04/01 13:17:50;;;;;;;3.55;1.27;;;;;;;;;;4949816;28;20046;-69
2022/04/01 13:20:17;;;;;;;3.08;1.27;;;;;;;;;;4966344;28;20489;-69
2022/04/01 13:22:44;;;;;;;4.00;1.30;;;;;;;;;;4949064;28;20047;-69
2022/04/01 13:25:12;;;;;;;4.75;1.23;;;;;;;;;;4966226;28;20054;-69
2022/04/01 13:27:39;;;;;;;3.28;1.13;;;;;;;;;;4966409;28;20075;-69
2022/04/01 13:30:07;;;;;;;2.95;1.15;;;;;;;;;;4948236;28;20062;-69
2022/04/01 13:32:33;;;;;;;3.50;1.10;;;;;;;;;;4949277;28;20043;-69
2022/04/01 13:34:59;;;;;;;3.03;1.40;;;;;;;;;;4966153;28;20701;-69
2022/04/01 13:37:25;;;;;;;3.63;1.17;;;;;;;;;;4966713;28;20047;-69
2022/04/01 13:39:52;;;;;;;2.90;1.00;;;;;;;;;;4962285;28;20066;-68
2022/04/01 13:42:19;;;;;;;4.82;1.25;;;;;;;;;;4966637;28;20708;-69
2022/04/01 13:44:45;;;;;;;4.35;1.30;;;;;;;;;;4948422;28;21105;-69
2022/04/01 13:47:12;;;;;;;2.88;0.95;;;;;;;;;;4967043;28;20172;-69
2022/04/01 13:49:39;;;;;;;2.80;1.27;;;;;;;;;;4969784;28;20046;-68
2022/04/01 13:52:07;;;;;;;2.78;1.10;;;;;;;;;;4969917;28;20126;-69
2022/04/01 13:54:34;;;;;;;5.72;1.10;;;;;;;;;;4969960;28;20055;-69
2022/04/01 13:57:00;;;;;;;3.97;1.20;;;;;;;;;;4969876;28;20078;-70
2022/04/01 13:59:27;;;;;;;6.53;2.20;;;;;;;;;;4969290;28;20126;-69
2022/04/01 14:01:54;;;;;;;5.40;1.52;;;;;;;;;;4966198;28;20047;-65
2022/04/01 14:04:20;;;;;;;5.60;1.52;;;;;;;;;;4970694;28;20035;-65
2022/04/01 14:06:50;;;;;;;3.15;1.15;;;;;;;;;;4966133;28;20054;-65
2022/04/01 14:09:16;;;;;;;4.43;1.10;;;;;;;;;;4952104;28;20424;-66
2022/04/01 14:11:42;;;;;;;5.93;1.67;;;;;;;;;;4970162;28;20047;-65
2022/04/01 14:14:09;;;;;;;9.32;4.20;;;;;;;;;;4952281;28;20039;-65
2022/04/01 14:16:36;;;;;;;5.20;1.30;;;;;;;;;;4969205;28;20129;-66
2022/04/01 14:19:06;;;;;;;3.60;1.88;;;;;;;;;;4952305;28;20345;-65
2022/04/01 14:21:32;;;;;;;4.63;1.70;;;;;;;;;;4969864;28;20046;-66
2022/04/01 14:23:59;;;;;;;9.20;2.35;;;;;;;;;;4968539;28;20043;-66
2022/04/01 14:26:25;;;;;;;3.13;1.10;;;;;;;;;;4968003;28;20054;-65
2022/04/01 14:28:52;;;;;;;4.88;1.40;;;;;;;;;;4969825;28;20042;-67
2022/04/01 14:31:19;;;;;;;6.45;1.70;;;;;;;;;;4968519;28;20049;-65
2022/04/01 14:33:46;;;;;;;5.85;1.67;;;;;;;;;;4969596;28;20047;-65
2022/04/01 14:36:12;;;;;;;3.08;1.13;;;;;;;;;;4969693;28;20750;-70
2022/04/01 14:38:39;;;;;;;2.53;1.10;;;;;;;;;;4969893;28;20043;-66
2022/04/01 14:41:05;;;;;;;2.42;1.15;;;;;;;;;;4969419;28;20051;-65
2022/04/01 14:43:32;;;;;;;3.95;1.33;;;;;;;;;;4969344;28;20082;-65
2022/04/01 14:45:58;;;;;;;5.70;1.58;;;;;;;;;;4967701;28;20043;-66
2022/04/01 14:48:24;;;;;;;4.28;1.05;;;;;;;;;;4969290;28;20090;-65
2022/04/01 14:50:50;;;;;;;2.15;0.77;;;;;;;;;;4969401;28;20133;-65
2022/04/01 14:53:17;;;;;;;9.90;4.65;;;;;;;;;;4964010;28;20105;-65
2022/04/01 14:55:44;;;;;;;24.27;13.48;;;;;;;;;;4974606;28;20050;-65
2022/04/01 14:58:10;;;;;;;4.25;2.17;;;;;;;;;;4979932;28;21075;-65
2022/04/01 15:00:37;;;;;;;5.65;1.10;;;;;;;;;;4984203;28;20094;-65
2022/04/01 15:03:04;;;;;;;4.05;1.33;;;;;;;;;;4985598;28;20496;-64
2022/04/01 15:05:31;;;;;;;6.10;2.45;;;;;;;;;;4981920;28;20054;-65
2022/04/01 15:07:57;;;;;;;6.00;3.00;;;;;;;;;;4983710;28;20086;-65
2022/04/01 15:10:23;;;;;;;4.65;1.10;;;;;;;;;;4967554;28;20066;-66